Date,TemperatureHighF,TemperatureAvgF,TemperatureLowF,DewpointHighF,DewpointAvgF,DewpointLowF,HumidityHigh,HumidityAvg,HumidityLow,PressureMaxIn,PressureMinIn,WindSpeedMaxMPH,WindSpeedAvgMPH,GustSpeedMaxMPH,PrecipitationSumIn
2013-2-1,70.0,55.7,44.9,46.4,38.6,33.7,83,56,29,30.33,30.19,22,6,22,0.00
2013-2-2,71.9,57.3,45.6,50.0,44.9,39.2,84,65,38,30.28,30.11,16,5,16,0.00
2013-2-3,72.2,58.0,46.3,56.9,49.8,43.0,89,75,50,30.17,30.05,21,5,21,0.00
2013-2-4,66.7,53.5,47.9,51.3,47.6,42.8,92,82,44,30.11,30.06,12,2,12,0.00
2013-2-5,75.3,65.4,48.2,59.6,52.5,39.9,78,64,51,30.07,29.96,14,3,14,0.00
2013-2-6,78.0,69.6,62.1,63.7,60.0,55.4,84,72,60,30.07,29.99,11,3,11,0.00
2013-2-7,80.8,70.9,64.4,68.4,65.7,62.2,95,84,62,30.02,29.85,34,9,34,0.09
2013-2-8,79.0,67.9,58.3,67.7,62.9,56.8,97,85,60,30.05,29.86,23,8,23,0.00
2013-2-9,77.4,64.9,54.5,59.7,56.7,53.6,98,77,51,30.17,30.04,17,5,17,0.01
2013-2-10,82.3,69.4,59.0,66.1,61.1,55.8,92,76,55,30.22,30.09,21,7,21,0.00
2013-2-11,82.1,71.8,63.2,69.6,66.3,61.5,96,84,64,30.17,30.05,20,6,20,0.00
2013-2-12,80.8,71.8,66.1,73.3,69.4,65.8,100,92,76,30.07,29.91,26,7,26,0.00
2013-2-13,80.0,71.0,61.4,74.4,69.1,57.1,100,94,82,29.97,29.82,36,9,36,0.07
2013-2-14,64.1,61.4,59.0,61.1,59.5,56.6,99,94,83,30.02,29.90,17,4,17,0.55
2013-2-15,68.7,59.3,53.6,60.0,55.4,42.3,100,88,42,30.05,29.93,15,5,15,0.05
2013-2-16,68.1,57.0,50.4,54.2,48.8,37.7,93,75,53,30.11,29.92,32,10,32,0.01
2013-2-17,56.1,47.2,39.2,38.3,30.1,24.5,69,52,31,30.31,30.11,25,7,29,0.00
2013-2-18,70.3,54.4,38.5,51.6,41.3,30.3,79,63,45,30.32,30.16,22,6,22,0.00
2013-2-19,76.4,65.6,55.4,63.9,58.2,49.4,94,78,58,30.18,30.05,25,6,25,0.00
2013-2-20,77.9,67.3,62.1,66.9,62.8,57.1,99,86,68,30.09,29.98,16,4,16,0.00
2013-2-21,82.5,70.0,59.7,69.9,63.8,57.0,94,82,62,30.08,29.95,14,4,14,0.00
2013-2-22,83.5,73.0,65.8,72.6,68.4,63.7,97,86,68,30.04,29.96,22,5,22,0.00
2013-2-23,81.0,72.6,68.8,74.9,70.8,68.2,99,94,81,29.97,29.86,25,7,31,0.00
2013-2-24,81.2,72.7,68.4,74.1,70.6,68.4,100,94,78,29.93,29.85,18,4,18,0.00
2013-2-25,84.0,74.3,67.2,73.7,70.7,67.2,100,89,69,29.87,29.74,21,5,21,0.00
2013-2-26,75.3,71.5,66.6,73.2,68.8,63.6,97,91,76,29.85,29.67,29,6,29,0.28
2013-2-27,72.0,65.3,57.9,63.6,59.1,53.6,92,81,64,29.95,29.84,17,6,17,0.00
2013-2-28,73.3,62.8,55.1,58.7,54.8,50.2,93,76,56,29.97,29.88,28,6,28,0.00